Terminal Aerodrome Forecast
Issued by NWS Twin Cities, MN

Home | Current Version | Previous Version | Graphics & Text | Print | Product List | Glossary On
Versions: 1 2 3 4 5 6 7 8 9 10 11 12 13 14 15
000
FTUS43 KMPX 281720
TAFSTC
TAF
KSTC 281720Z 2818/2918 17012G20KT P6SM SCT250
     FM290600 16018G24KT P6SM SCT050 BKN110
     FM290800 18016G24KT P6SM -RA SCT040 BKN090
     FM291000 18018G24KT P6SM -RA SCT020 BKN040
     FM291200 21015G24KT 5SM BR SCT020
     FM291400 29022G30KT 5SM BR BKN020=

USA.gov is the U.S. government's official web portal to all federal, state and local government web resources and services.